Anastasia Island, Florida
Current Conditions -  °F | °C
As of 5:58 PM on Wednesday 22 Oct 2014 (Local Time) from KSGJ Reporting Station
Clear Clear  
Wind Chill: 70°   Ceiling: Unl
Heat Index: 70°   Visibility: 10mi
Dew Point: 55°   Wind: 13mph
Humidity: 59%   Direction: 20°NNE
Pressure: 30.01"   Gusts: NA
Location:  29.8475°N, 81.2787°W
Report Text: KSGJ 222158Z 02011KT 10SM CLR 21/13 A3001 RMK AO2 SLP161 T02110128
Loading
Personal Weather Stations






























Interactive Weather Map
Tropical Storm Tracking
New forecast layout! Learn more

10-Day Weather Forecast

Advertisements
Track Severe Weather on mobile